createdAt,value
2023-03-19T00:02:42.131Z,98729.00
2023-03-19T00:05:11.589Z,98733.00
2023-03-19T00:07:40.797Z,98739.00
2023-03-19T00:10:10.490Z,98745.00
2023-03-19T00:12:39.889Z,98747.00
2023-03-19T00:18:09.825Z,98763.00
2023-03-19T00:20:56.731Z,98765.00
2023-03-19T00:26:14.747Z,98772.00
2023-03-19T00:28:44.269Z,98772.00
2023-03-19T00:31:17.776Z,98767.00
2023-03-19T00:36:36.685Z,98783.00
2023-03-19T00:39:06.957Z,98797.00
2023-03-19T00:41:36.203Z,98793.00
2023-03-19T00:44:07.126Z,98805.00
2023-03-19T00:49:38.259Z,98822.00
2023-03-19T00:52:11.530Z,98826.00
2023-03-19T00:54:40.798Z,98835.00
2023-03-19T00:57:10.325Z,98831.00
2023-03-19T00:59:39.590Z,98836.00
2023-03-19T01:02:11.920Z,98834.00
2023-03-19T01:04:41.332Z,98833.00
2023-03-19T01:07:10.763Z,98837.00
2023-03-19T01:09:40.472Z,98846.00
2023-03-19T01:12:11.819Z,98863.00
2023-03-19T01:23:18.157Z,98875.00
2023-03-19T01:28:39.216Z,98878.00
2023-03-19T01:34:16.997Z,98896.00
2023-03-19T01:39:47.634Z,98899.00
2023-03-19T01:49:02.410Z,98901.00
2023-03-19T01:51:53.403Z,98904.00
2023-03-19T02:00:45.844Z,98901.00
2023-03-19T02:03:16.441Z,98912.00
2023-03-19T02:11:41.927Z,98918.00
2023-03-19T02:14:17.103Z,98917.00
2023-03-19T02:16:57.230Z,98926.00
2023-03-19T02:19:59.013Z,98926.00
2023-03-19T02:22:37.731Z,98922.00
2023-03-19T02:25:48.821Z,98923.00
2023-03-19T02:28:37.258Z,98924.00
2023-03-19T02:31:14.875Z,98915.00
2023-03-19T02:34:30.729Z,98913.00
2023-03-19T02:37:13.605Z,98911.00
2023-03-19T02:48:33.345Z,98895.00
2023-03-19T02:59:14.570Z,98896.00
2023-03-19T03:01:53.569Z,98891.00
2023-03-19T03:04:34.331Z,98889.00
2023-03-19T03:07:14.455Z,98889.00
2023-03-19T03:09:45.841Z,98888.00
2023-03-19T03:12:17.122Z,98885.00
2023-03-19T03:17:39.578Z,98882.00
2023-03-19T03:22:57.004Z,98874.00
2023-03-19T03:25:31.576Z,98872.00
2023-03-19T03:28:01.037Z,98862.00
2023-03-19T03:30:42.916Z,98862.00
2023-03-19T03:33:18.263Z,98853.00
2023-03-19T03:35:47.946Z,98855.00
2023-03-19T03:38:17.600Z,98845.00
2023-03-19T03:40:46.820Z,98858.00
2023-03-19T03:43:16.828Z,98848.00
2023-03-19T03:45:46.772Z,98849.00
2023-03-19T03:48:17.119Z,98851.00
2023-03-19T03:50:46.870Z,98861.00
2023-03-19T03:53:17.056Z,98853.00
2023-03-19T03:55:46.715Z,98848.00
2023-03-19T03:58:15.953Z,98855.00
2023-03-19T04:00:45.348Z,98844.00
2023-03-19T04:03:14.664Z,98840.00
2023-03-19T04:05:44.773Z,98829.00
2023-03-19T04:08:13.982Z,98833.00
2023-03-19T04:10:44.748Z,98825.00
2023-03-19T04:13:14.837Z,98816.00
2023-03-19T04:15:47.518Z,98825.00
2023-03-19T04:18:16.743Z,98817.00
2023-03-19T04:20:45.819Z,98817.00
2023-03-19T04:23:14.934Z,98806.00
2023-03-19T04:25:44.058Z,98807.00
2023-03-19T04:28:13.119Z,98795.00
2023-03-19T04:30:42.596Z,98793.00
2023-03-19T04:33:13.051Z,98788.00
2023-03-19T04:35:42.500Z,98786.00
2023-03-19T04:38:11.785Z,98779.00
2023-03-19T04:40:40.883Z,98774.00
2023-03-19T04:43:09.972Z,98774.00
2023-03-19T04:45:39.190Z,98765.00
2023-03-19T04:48:09.661Z,98769.00
2023-03-19T04:50:39.233Z,98766.00
2023-03-19T04:53:09.018Z,98750.00
2023-03-19T04:55:38.211Z,98754.00
2023-03-19T04:58:07.704Z,98758.00
2023-03-19T05:00:37.084Z,98748.00
2023-03-19T05:03:06.377Z,98738.00
2023-03-19T05:05:35.594Z,98734.00
2023-03-19T05:08:05.291Z,98733.00
2023-03-19T05:10:36.013Z,98735.00
2023-03-19T05:13:06.863Z,98738.00
2023-03-19T05:15:36.463Z,98720.00
2023-03-19T05:18:06.198Z,98710.00
2023-03-19T05:20:35.858Z,98701.00
2023-03-19T05:23:05.694Z,98704.00
2023-03-19T05:25:37.061Z,98698.00
2023-03-19T05:28:08.244Z,98691.00
2023-03-19T05:30:38.181Z,98684.00
2023-03-19T05:33:08.123Z,98686.00
2023-03-19T05:35:39.228Z,98679.00
2023-03-19T05:38:09.222Z,98673.00
2023-03-19T05:40:38.652Z,98662.00
2023-03-19T05:43:07.882Z,98659.00
2023-03-19T05:45:37.861Z,98657.00
2023-03-19T05:48:07.512Z,98652.00
2023-03-19T05:50:36.786Z,98653.00
2023-03-19T05:53:05.997Z,98642.00
2023-03-19T05:55:35.165Z,98637.00
2023-03-19T05:58:04.363Z,98629.00
2023-03-19T06:00:33.922Z,98629.00
2023-03-19T06:03:03.553Z,98615.00
2023-03-19T06:05:32.954Z,98613.00
2023-03-19T06:08:02.241Z,98598.00
2023-03-19T06:10:31.757Z,98595.00
2023-03-19T06:13:01.413Z,98594.00
2023-03-19T06:15:30.822Z,98590.00
2023-03-19T06:18:00.208Z,98594.00
2023-03-19T06:20:29.339Z,98584.00
2023-03-19T06:22:58.462Z,98580.00
2023-03-19T06:25:28.047Z,98575.00
2023-03-19T06:27:57.139Z,98568.00
2023-03-19T06:30:26.667Z,98569.00
2023-03-19T06:32:55.773Z,98557.00
2023-03-19T06:35:25.250Z,98555.00
2023-03-19T06:37:54.494Z,98548.00
2023-03-19T06:40:23.850Z,98546.00
2023-03-19T06:42:53.301Z,98539.00
2023-03-19T06:45:22.426Z,98536.00
2023-03-19T06:47:53.480Z,98530.00
2023-03-19T06:50:22.834Z,98522.00
2023-03-19T06:52:52.040Z,98510.00
2023-03-19T06:55:21.589Z,98503.00
2023-03-19T06:57:52.242Z,98491.00
2023-03-19T07:00:21.795Z,98491.00
2023-03-19T07:02:50.961Z,98480.00
2023-03-19T07:05:20.135Z,98488.00
2023-03-19T07:07:49.257Z,98482.00
2023-03-19T07:10:22.034Z,98473.00
2023-03-19T07:12:51.541Z,98473.00
2023-03-19T07:15:22.403Z,98468.00
2023-03-19T07:17:51.728Z,98458.00
2023-03-19T07:20:20.985Z,98450.00
2023-03-19T07:22:52.750Z,98448.00
2023-03-19T07:25:22.637Z,98442.00
2023-03-19T07:27:53.540Z,98430.00
2023-03-19T07:30:25.230Z,98433.00
2023-03-19T07:32:54.363Z,98433.00
2023-03-19T07:35:23.677Z,98427.00
2023-03-19T07:37:52.856Z,98429.00
2023-03-19T07:40:21.959Z,98421.00
2023-03-19T07:42:51.148Z,98415.00
2023-03-19T07:45:20.431Z,98423.00
2023-03-19T07:47:52.519Z,98427.00
2023-03-19T07:50:22.065Z,98420.00
2023-03-19T07:52:55.108Z,98422.00
2023-03-19T07:55:24.324Z,98425.00
2023-03-19T07:57:53.670Z,98418.00
2023-03-19T08:00:23.135Z,98416.00
2023-03-19T08:02:52.358Z,98410.00
2023-03-19T08:05:21.614Z,98401.00
2023-03-19T08:07:52.182Z,98404.00
2023-03-19T08:10:21.753Z,98407.00
2023-03-19T08:12:51.897Z,98397.00
2023-03-19T08:15:21.120Z,98389.00
2023-03-19T08:17:50.834Z,98393.00
2023-03-19T08:20:20.392Z,98393.00
2023-03-19T08:22:52.102Z,98387.00
2023-03-19T08:25:21.527Z,98380.00
2023-03-19T08:27:51.985Z,98365.00
2023-03-19T08:30:21.654Z,98362.00
2023-03-19T08:32:51.544Z,98356.00
2023-03-19T08:35:21.370Z,98364.00
2023-03-19T08:37:50.568Z,98368.00
2023-03-19T08:40:20.114Z,98361.00
2023-03-19T08:42:49.976Z,98376.00
2023-03-19T08:45:19.525Z,98380.00
2023-03-19T08:47:50.191Z,98377.00
2023-03-19T08:50:20.694Z,98368.00
2023-03-19T08:52:49.953Z,98365.00
2023-03-19T08:55:20.052Z,98367.00
2023-03-19T08:57:49.278Z,98361.00
2023-03-19T09:00:20.516Z,98365.00
2023-03-19T09:02:50.098Z,98357.00
2023-03-19T09:05:23.323Z,98347.00
2023-03-19T09:07:53.864Z,98348.00
2023-03-19T09:10:23.130Z,98346.00
2023-03-19T09:12:52.462Z,98338.00
2023-03-19T09:15:21.673Z,98338.00
2023-03-19T09:17:50.942Z,98335.00
2023-03-19T09:20:20.653Z,98337.00
2023-03-19T09:22:49.993Z,98336.00
2023-03-19T09:25:19.370Z,98335.00
2023-03-19T09:27:48.630Z,98332.00
2023-03-19T09:30:18.008Z,98335.00
2023-03-19T09:32:47.465Z,98332.00
2023-03-19T09:35:16.851Z,98334.00
2023-03-19T09:37:46.047Z,98328.00
2023-03-19T09:40:45.040Z,98335.00
2023-03-19T09:43:26.522Z,98325.00
2023-03-19T09:45:55.855Z,98330.00
2023-03-19T09:48:53.587Z,98339.00
2023-03-19T09:52:11.480Z,98346.00
2023-03-19T09:54:49.396Z,98339.00
2023-03-19T09:57:18.531Z,98343.00
2023-03-19T09:59:50.043Z,98345.00
2023-03-19T10:02:43.953Z,98351.00
2023-03-19T10:05:28.174Z,98348.00
2023-03-19T10:08:40.371Z,98345.00
2023-03-19T10:11:28.769Z,98344.00
2023-03-19T10:14:18.034Z,98342.00
2023-03-19T10:16:52.442Z,98343.00
2023-03-19T10:19:40.712Z,98335.00
2023-03-19T10:22:18.853Z,98335.00
2023-03-19T10:24:49.964Z,98340.00
2023-03-19T10:27:27.452Z,98335.00
2023-03-19T10:29:57.768Z,98346.00
2023-03-19T10:33:27.301Z,98354.00
2023-03-19T10:36:16.392Z,98358.00
2023-03-19T10:38:46.445Z,98372.00
2023-03-19T10:41:42.601Z,98371.00
2023-03-19T10:44:33.301Z,98374.00
2023-03-19T10:47:14.449Z,98372.00
2023-03-19T10:49:44.405Z,98372.00
2023-03-19T10:52:38.217Z,98369.00
2023-03-19T10:55:18.858Z,98368.00
2023-03-19T10:57:53.248Z,98363.00
2023-03-19T11:00:30.850Z,98360.00
2023-03-19T11:03:00.412Z,98364.00
2023-03-19T11:05:33.189Z,98359.00
2023-03-19T11:08:35.031Z,98360.00
2023-03-19T11:11:05.234Z,98352.00
2023-03-19T11:13:37.926Z,98358.00
2023-03-19T11:16:07.725Z,98350.00
2023-03-19T11:18:42.136Z,98349.00
2023-03-19T11:21:25.798Z,98353.00
2023-03-19T11:24:03.797Z,98348.00
2023-03-19T11:26:33.000Z,98358.00
2023-03-19T11:29:07.133Z,98363.00
2023-03-19T11:31:50.611Z,98362.00
2023-03-19T11:34:49.124Z,98366.00
2023-03-19T11:37:59.482Z,98366.00
2023-03-19T11:40:53.544Z,98367.00
2023-03-19T11:43:58.471Z,98369.00
2023-03-19T11:46:47.166Z,98371.00
2023-03-19T11:49:43.458Z,98372.00
2023-03-19T11:52:41.632Z,98387.00
2023-03-19T11:55:50.631Z,98389.00
2023-03-19T11:58:58.977Z,98398.00
2023-03-19T12:01:58.443Z,98402.00
2023-03-19T12:04:57.496Z,98407.00
2023-03-19T12:08:02.863Z,98405.00
2023-03-19T12:10:43.991Z,98416.00
2023-03-19T12:13:49.679Z,98421.00
2023-03-19T12:16:37.012Z,98423.00
2023-03-19T12:19:49.693Z,98425.00
2023-03-19T12:22:55.766Z,98434.00
2023-03-19T12:26:40.154Z,98440.00
2023-03-19T12:29:42.129Z,98442.00
2023-03-19T12:32:25.541Z,98441.00
2023-03-19T12:35:12.812Z,98441.00
2023-03-19T12:37:55.130Z,98450.00
2023-03-19T12:40:49.576Z,98448.00
2023-03-19T12:43:48.701Z,98454.00
2023-03-19T12:46:45.512Z,98463.00
2023-03-19T12:49:20.123Z,98467.00
2023-03-19T12:52:05.393Z,98476.00
2023-03-19T12:54:43.108Z,98481.00
2023-03-19T12:57:23.762Z,98484.00
2023-03-19T13:00:19.202Z,98490.00
2023-03-19T13:03:21.731Z,98493.00
2023-03-19T13:06:36.630Z,98499.00
2023-03-19T13:09:34.358Z,98504.00
2023-03-19T13:12:24.873Z,98515.00
2023-03-19T13:15:06.574Z,98524.00
2023-03-19T13:18:05.948Z,98535.00
2023-03-19T13:21:11.387Z,98548.00
2023-03-19T13:23:43.990Z,98561.00
2023-03-19T13:26:15.519Z,98566.00
2023-03-19T13:29:02.502Z,98570.00
2023-03-19T13:31:37.779Z,98571.00
2023-03-19T13:34:30.843Z,98582.00
2023-03-19T13:37:19.269Z,98589.00
2023-03-19T13:39:50.676Z,98600.00
2023-03-19T13:42:44.780Z,98592.00
2023-03-19T13:45:30.782Z,98599.00
2023-03-19T13:48:46.323Z,98593.00
2023-03-19T13:51:24.877Z,98591.00
2023-03-19T13:54:24.097Z,98590.00
2023-03-19T13:57:02.579Z,98583.00
2023-03-19T13:59:37.183Z,98591.00
2023-03-19T14:02:26.490Z,98603.00
2023-03-19T14:05:36.737Z,98608.00
2023-03-19T14:08:30.514Z,98608.00
2023-03-19T14:11:02.998Z,98603.00
2023-03-19T14:13:44.229Z,98605.00
2023-03-19T14:16:21.056Z,98612.00
2023-03-19T14:18:55.913Z,98612.00
2023-03-19T14:21:59.357Z,98610.00
2023-03-19T14:25:06.034Z,98606.00
2023-03-19T14:27:44.840Z,98602.00
2023-03-19T14:30:41.734Z,98601.00
2023-03-19T14:33:28.029Z,98612.00
2023-03-19T14:36:04.026Z,98619.00
2023-03-19T14:38:48.917Z,98616.00
2023-03-19T14:41:23.753Z,98621.00
2023-03-19T14:43:53.599Z,98623.00
2023-03-19T14:47:13.756Z,98629.00
2023-03-19T14:50:03.919Z,98623.00
2023-03-19T14:53:05.918Z,98629.00
2023-03-19T14:55:39.834Z,98631.00
2023-03-19T14:58:14.582Z,98625.00
2023-03-19T15:00:56.986Z,98630.00
2023-03-19T15:03:40.109Z,98629.00
2023-03-19T15:06:15.048Z,98629.00
2023-03-19T15:08:44.889Z,98637.00
2023-03-19T15:11:19.699Z,98638.00
2023-03-19T15:13:51.897Z,98635.00
2023-03-19T15:16:58.655Z,98635.00
2023-03-19T15:19:33.702Z,98639.00
2023-03-19T15:22:23.544Z,98635.00
2023-03-19T15:24:53.103Z,98634.00
2023-03-19T15:27:28.562Z,98630.00
2023-03-19T15:30:08.866Z,98632.00
2023-03-19T15:33:04.437Z,98633.00
2023-03-19T15:35:37.765Z,98635.00
2023-03-19T15:38:14.718Z,98638.00
2023-03-19T15:40:46.464Z,98638.00
2023-03-19T15:43:16.490Z,98645.00
2023-03-19T15:45:52.511Z,98651.00
2023-03-19T15:48:37.824Z,98640.00
2023-03-19T15:51:11.546Z,98640.00
2023-03-19T15:53:41.796Z,98638.00
2023-03-19T15:56:15.170Z,98638.00
2023-03-19T15:58:53.059Z,98642.00
2023-03-19T16:01:25.934Z,98638.00
2023-03-19T16:04:17.313Z,98643.00
2023-03-19T16:06:51.793Z,98643.00
2023-03-19T16:09:31.077Z,98646.00
2023-03-19T16:12:06.207Z,98637.00
2023-03-19T16:14:43.298Z,98638.00
2023-03-19T16:17:21.372Z,98625.00
2023-03-19T16:20:03.593Z,98634.00
2023-03-19T16:22:34.632Z,98631.00
2023-03-19T16:25:07.903Z,98627.00
2023-03-19T16:27:42.099Z,98627.00
2023-03-19T16:30:30.902Z,98624.00
2023-03-19T16:33:06.602Z,98628.00
2023-03-19T16:35:38.600Z,98620.00
2023-03-19T16:38:17.921Z,98613.00
2023-03-19T16:40:50.403Z,98618.00
2023-03-19T16:43:35.386Z,98611.00
2023-03-19T16:46:13.457Z,98613.00
2023-03-19T16:48:42.731Z,98609.00
2023-03-19T16:51:22.472Z,98601.00
2023-03-19T16:53:51.875Z,98608.00
2023-03-19T16:56:21.940Z,98596.00
2023-03-19T16:58:51.328Z,98600.00
2023-03-19T17:01:25.620Z,98588.00
2023-03-19T17:03:55.675Z,98587.00
2023-03-19T17:06:25.044Z,98588.00
2023-03-19T17:08:54.206Z,98578.00
2023-03-19T17:11:30.547Z,98585.00
2023-03-19T17:14:00.931Z,98588.00
2023-03-19T17:16:31.258Z,98582.00
2023-03-19T17:19:00.948Z,98578.00
2023-03-19T17:21:34.660Z,98587.00
2023-03-19T17:24:33.016Z,98588.00
2023-03-19T17:27:04.995Z,98584.00
2023-03-19T17:29:34.892Z,98574.00
2023-03-19T17:32:05.739Z,98577.00
2023-03-19T17:34:36.809Z,98572.00
2023-03-19T17:37:12.265Z,98567.00
2023-03-19T17:39:43.394Z,98571.00
2023-03-19T17:42:23.732Z,98568.00
2023-03-19T17:44:53.345Z,98570.00
2023-03-19T17:47:23.020Z,98558.00
2023-03-19T17:49:52.275Z,98557.00
2023-03-19T17:52:22.158Z,98554.00
2023-03-19T17:54:51.327Z,98554.00
2023-03-19T17:57:20.466Z,98542.00
2023-03-19T17:59:49.581Z,98541.00
2023-03-19T18:02:32.613Z,98537.00
2023-03-19T18:05:01.779Z,98530.00
2023-03-19T18:07:30.999Z,98535.00
2023-03-19T18:10:00.202Z,98515.00
2023-03-19T18:12:29.409Z,98524.00
2023-03-19T18:14:59.189Z,98514.00
2023-03-19T18:17:28.433Z,98519.00
2023-03-19T18:19:57.714Z,98513.00
2023-03-19T18:22:28.274Z,98508.00
2023-03-19T18:24:59.067Z,98511.00
2023-03-19T18:27:28.226Z,98511.00
2023-03-19T18:29:57.373Z,98502.00
2023-03-19T18:32:33.597Z,98505.00
2023-03-19T18:35:04.437Z,98501.00
2023-03-19T18:37:35.800Z,98497.00
2023-03-19T18:40:05.798Z,98489.00
2023-03-19T18:42:34.913Z,98484.00
2023-03-19T18:45:04.125Z,98488.00
2023-03-19T18:47:33.642Z,98488.00
2023-03-19T18:50:02.865Z,98487.00
2023-03-19T18:52:32.202Z,98487.00
2023-03-19T18:55:01.395Z,98477.00
2023-03-19T18:57:30.611Z,98479.00
2023-03-19T19:00:01.279Z,98482.00
2023-03-19T19:02:39.216Z,98483.00
2023-03-19T19:05:08.676Z,98481.00
2023-03-19T19:07:37.777Z,98480.00
2023-03-19T19:10:08.509Z,98474.00
2023-03-19T19:12:40.373Z,98479.00
2023-03-19T19:15:29.053Z,98481.00
2023-03-19T19:17:59.008Z,98477.00
2023-03-19T19:20:30.870Z,98475.00
2023-03-19T19:23:00.023Z,98477.00
2023-03-19T19:25:31.068Z,98472.00
2023-03-19T19:28:10.008Z,98472.00
2023-03-19T19:30:39.717Z,98461.00
2023-03-19T19:33:22.028Z,98460.00
2023-03-19T19:35:53.047Z,98464.00
2023-03-19T19:38:22.495Z,98459.00
2023-03-19T19:40:55.376Z,98464.00
2023-03-19T19:43:30.265Z,98454.00
2023-03-19T19:46:01.268Z,98457.00
2023-03-19T19:48:32.516Z,98454.00
2023-03-19T19:51:02.147Z,98455.00
2023-03-19T19:53:31.925Z,98456.00
2023-03-19T19:56:02.447Z,98456.00
2023-03-19T19:58:34.941Z,98454.00
2023-03-19T20:01:04.780Z,98449.00
2023-03-19T20:03:36.053Z,98450.00
2023-03-19T20:06:05.480Z,98454.00
2023-03-19T20:08:34.626Z,98454.00
2023-03-19T20:11:04.960Z,98450.00
2023-03-19T20:13:38.794Z,98453.00
2023-03-19T20:16:08.511Z,98463.00
2023-03-19T20:18:40.535Z,98455.00
2023-03-19T20:21:09.697Z,98446.00
2023-03-19T20:23:38.819Z,98457.00
2023-03-19T20:26:08.170Z,98451.00
2023-03-19T20:28:37.425Z,98456.00
2023-03-19T20:31:07.262Z,98456.00
2023-03-19T20:33:38.308Z,98457.00
2023-03-19T20:36:08.031Z,98460.00
2023-03-19T20:38:37.725Z,98457.00
2023-03-19T20:41:21.166Z,98453.00
2023-03-19T20:43:51.768Z,98448.00
2023-03-19T20:46:24.099Z,98450.00
2023-03-19T20:48:53.415Z,98447.00
2023-03-19T20:51:27.017Z,98443.00
2023-03-19T20:53:56.384Z,98444.00
2023-03-19T20:56:29.033Z,98447.00
2023-03-19T20:58:58.232Z,98446.00
2023-03-19T21:01:27.686Z,98451.00
2023-03-19T21:03:57.023Z,98451.00
2023-03-19T21:06:27.037Z,98450.00
2023-03-19T21:09:00.568Z,98447.00
2023-03-19T21:11:43.162Z,98454.00
2023-03-19T21:14:17.199Z,98450.00
2023-03-19T21:16:46.384Z,98448.00
2023-03-19T21:19:15.469Z,98439.00
2023-03-19T21:21:45.026Z,98452.00
2023-03-19T21:24:18.833Z,98449.00
2023-03-19T21:26:48.713Z,98444.00
2023-03-19T21:29:34.408Z,98443.00
2023-03-19T21:32:03.582Z,98451.00
2023-03-19T21:34:32.740Z,98459.00
2023-03-19T21:37:02.131Z,98462.00
2023-03-19T21:39:32.341Z,98464.00
2023-03-19T21:42:08.964Z,98461.00
2023-03-19T21:44:39.881Z,98467.00
2023-03-19T21:47:19.750Z,98470.00
2023-03-19T21:49:49.581Z,98476.00
2023-03-19T21:52:24.534Z,98478.00
2023-03-19T21:54:53.688Z,98483.00
2023-03-19T21:57:22.828Z,98477.00
2023-03-19T21:59:51.949Z,98477.00
2023-03-19T22:02:24.236Z,98476.00
2023-03-19T22:04:53.386Z,98478.00
2023-03-19T22:07:22.605Z,98487.00
2023-03-19T22:09:51.722Z,98487.00
2023-03-19T22:12:30.143Z,98491.00
2023-03-19T22:15:00.005Z,98494.00
2023-03-19T22:17:30.168Z,98495.00
2023-03-19T22:19:59.754Z,98494.00
2023-03-19T22:22:28.880Z,98492.00
2023-03-19T22:25:00.209Z,98494.00
2023-03-19T22:27:29.490Z,98499.00
2023-03-19T22:30:02.142Z,98502.00
2023-03-19T22:32:31.424Z,98501.00
2023-03-19T22:35:02.665Z,98505.00
2023-03-19T22:37:33.260Z,98501.00
2023-03-19T22:40:02.413Z,98506.00
2023-03-19T22:42:31.889Z,98503.00
2023-03-19T22:45:01.185Z,98511.00
2023-03-19T22:47:31.531Z,98517.00
2023-03-19T22:50:01.087Z,98523.00
2023-03-19T22:52:30.720Z,98534.00
2023-03-19T22:54:59.889Z,98546.00
2023-03-19T22:57:29.041Z,98552.00
2023-03-19T22:59:58.154Z,98569.00
2023-03-19T23:02:28.146Z,98564.00
2023-03-19T23:04:57.268Z,98570.00
2023-03-19T23:07:26.357Z,98575.00
2023-03-19T23:09:56.106Z,98581.00
2023-03-19T23:12:25.197Z,98593.00
2023-03-19T23:14:54.772Z,98593.00
2023-03-19T23:17:23.934Z,98591.00
2023-03-19T23:19:55.401Z,98600.00
2023-03-19T23:22:24.545Z,98605.00
2023-03-19T23:24:53.711Z,98607.00
2023-03-19T23:27:37.906Z,98605.00
2023-03-19T23:30:07.854Z,98605.00
2023-03-19T23:32:37.197Z,98615.00
2023-03-19T23:35:18.760Z,98624.00
2023-03-19T23:37:48.731Z,98636.00
2023-03-19T23:40:20.565Z,98643.00
2023-03-19T23:42:54.831Z,98643.00
2023-03-19T23:45:30.574Z,98652.00
2023-03-19T23:48:16.600Z,98651.00
2023-03-19T23:50:48.000Z,98653.00
2023-03-19T23:53:25.258Z,98659.00
2023-03-19T23:56:05.691Z,98667.00
2023-03-19T23:58:41.294Z,98672.00
